Time;durP1;ratioP1;P1;durP2;ratioP2;P2;SDS_P1;SDS_P2;PMS_P1;PMS_P2;Temp;Humidity;BMP_temperature;BMP_pressure;BME280_temperature;BME280_humidity;BME280_pressure;Samples;Min_cycle;Max_cycle;Signal;HPM_P1;HPM_P2
2022/02/07 00:01:58;;;;;;;4.00;1.27;;;;;;;;;;5023587;28;20178;-58
2022/02/07 00:04:31;;;;;;;3.50;1.40;;;;;;;;;;5014557;28;20189;-58
2022/02/07 00:07:00;;;;;;;2.73;1.03;;;;;;;;;;5022177;28;20178;-59
2022/02/07 00:09:27;;;;;;;4.67;1.30;;;;;;;;;;5017843;28;20178;-59
2022/02/07 00:11:53;;;;;;;3.57;1.33;;;;;;;;;;5008348;28;20182;-58
2022/02/07 00:14:20;;;;;;;5.17;1.80;;;;;;;;;;5016597;28;20261;-58
2022/02/07 00:16:49;;;;;;;3.10;1.43;;;;;;;;;;5014433;28;20209;-59
2022/02/07 00:19:23;;;;;;;2.10;0.90;;;;;;;;;;5011737;28;20643;-58
2022/02/07 00:21:50;;;;;;;3.37;1.27;;;;;;;;;;5017312;28;20227;-59
2022/02/07 00:24:16;;;;;;;3.03;1.60;;;;;;;;;;5030086;28;20587;-59
2022/02/07 00:26:42;;;;;;;5.30;1.50;;;;;;;;;;5017566;28;20213;-58
2022/02/07 00:29:09;;;;;;;2.37;1.10;;;;;;;;;;5018362;28;20267;-58
2022/02/07 00:31:36;;;;;;;2.37;1.20;;;;;;;;;;5008016;28;20193;-58
2022/02/07 00:34:05;;;;;;;4.57;1.70;;;;;;;;;;5017124;28;20285;-59
2022/02/07 00:36:35;;;;;;;1.90;1.27;;;;;;;;;;5022190;28;20186;-59
2022/02/07 00:39:08;;;;;;;3.17;1.20;;;;;;;;;;5018758;28;20190;-59
2022/02/07 00:44:38;;;;;;;2.50;1.40;;;;;;;;;;4991798;28;20657;-59
2022/02/07 00:47:15;;;;;;;2.10;1.10;;;;;;;;;;5021512;28;20197;-58
2022/02/07 00:49:44;;;;;;;3.50;1.00;;;;;;;;;;5022891;28;20664;-58
2022/02/07 00:52:13;;;;;;;7.00;1.17;;;;;;;;;;5020710;28;20189;-58
2022/02/07 00:54:43;;;;;;;3.13;1.17;;;;;;;;;;5023008;28;20646;-59
2022/02/07 00:57:09;;;;;;;2.30;1.20;;;;;;;;;;5006723;28;20231;-58
2022/02/07 00:59:38;;;;;;;3.60;1.20;;;;;;;;;;5024393;28;20188;-58
2022/02/07 01:02:04;;;;;;;5.17;1.30;;;;;;;;;;5009571;28;20182;-58
2022/02/07 01:04:30;;;;;;;3.47;1.23;;;;;;;;;;5017330;28;20322;-58
2022/02/07 01:06:57;;;;;;;2.90;1.23;;;;;;;;;;5021024;28;20182;-58
2022/02/07 01:09:39;;;;;;;3.00;1.20;;;;;;;;;;5031373;28;20224;-58
2022/02/07 01:12:22;;;;;;;4.47;1.20;;;;;;;;;;5022705;28;20277;-58
2022/02/07 01:15:00;;;;;;;4.30;1.23;;;;;;;;;;5008836;28;20629;-58
2022/02/07 01:20:43;;;;;;;2.97;1.33;;;;;;;;;;5006899;28;20192;-59
2022/02/07 01:47:48;;;;;;;4.90;1.50;;;;;;;;;;5007429;28;20194;-59
2022/02/07 01:53:23;;;;;;;7.07;1.77;;;;;;;;;;5004876;28;20210;-58
2022/02/07 01:55:55;;;;;;;4.37;1.57;;;;;;;;;;5010151;28;20258;-58
2022/02/07 01:58:22;;;;;;;3.77;2.07;;;;;;;;;;5002808;28;20183;-59
2022/02/07 02:00:49;;;;;;;7.93;2.33;;;;;;;;;;5005463;28;20626;-58
2022/02/07 02:03:18;;;;;;;7.23;1.87;;;;;;;;;;4997345;28;20191;-58
2022/02/07 02:05:44;;;;;;;11.77;2.53;;;;;;;;;;4995354;28;20198;-58
2022/02/07 02:08:11;;;;;;;9.37;1.83;;;;;;;;;;4996214;28;20179;-57
2022/02/07 02:10:47;;;;;;;6.63;1.60;;;;;;;;;;5002029;28;20194;-58
2022/02/07 02:13:19;;;;;;;5.93;2.33;;;;;;;;;;4998173;28;20206;-58
2022/02/07 02:15:53;;;;;;;4.67;2.07;;;;;;;;;;5007724;28;20513;-58
2022/02/07 02:19:16;;;;;;;6.70;1.83;;;;;;;;;;5022480;28;20182;-58
2022/02/07 02:37:52;;;;;;;6.43;2.00;;;;;;;;;;4992895;28;20226;-58
2022/02/07 02:45:36;;;;;;;8.53;1.63;;;;;;;;;;4999039;28;20551;-58
2022/02/07 02:48:07;;;;;;;7.00;1.90;;;;;;;;;;5005934;28;20277;-58
2022/02/07 02:50:37;;;;;;;5.97;2.30;;;;;;;;;;4995557;28;20183;-58
2022/02/07 02:53:04;;;;;;;7.53;1.83;;;;;;;;;;5012994;28;20203;-58
2022/02/07 02:55:31;;;;;;;6.03;1.70;;;;;;;;;;4996004;28;20661;-58
2022/02/07 02:58:00;;;;;;;6.70;1.80;;;;;;;;;;5008672;28;20739;-58
2022/02/07 03:00:30;;;;;;;4.63;1.83;;;;;;;;;;4997277;28;20186;-58
2022/02/07 03:02:59;;;;;;;3.63;1.53;;;;;;;;;;5008441;28;20187;-58
2022/02/07 03:05:26;;;;;;;8.77;2.43;;;;;;;;;;5019064;28;20194;-58
2022/02/07 03:07:52;;;;;;;2.33;1.30;;;;;;;;;;5022691;28;20545;-58
2022/02/07 03:13:16;;;;;;;7.13;1.70;;;;;;;;;;4998767;28;20201;-58
2022/02/07 03:18:28;;;;;;;5.60;2.10;;;;;;;;;;5023029;28;20231;-58
2022/02/07 03:20:55;;;;;;;4.03;1.50;;;;;;;;;;5026719;28;20185;-58
2022/02/07 03:23:22;;;;;;;5.57;1.57;;;;;;;;;;5021340;28;20178;-58
2022/02/07 03:25:48;;;;;;;6.97;1.37;;;;;;;;;;5019903;28;20201;-58
2022/02/07 03:28:15;;;;;;;4.40;1.50;;;;;;;;;;5023623;28;20872;-58
2022/02/07 03:30:43;;;;;;;4.40;1.57;;;;;;;;;;5025856;28;20231;-58
2022/02/07 03:33:10;;;;;;;4.83;1.50;;;;;;;;;;5021869;28;20212;-58
2022/02/07 03:35:37;;;;;;;3.77;1.20;;;;;;;;;;5027945;28;20541;-58
2022/02/07 03:38:04;;;;;;;6.67;1.50;;;;;;;;;;5032272;28;20177;-58
2022/02/07 03:40:31;;;;;;;5.70;1.80;;;;;;;;;;5029473;28;20177;-58
2022/02/07 03:43:04;;;;;;;7.37;1.57;;;;;;;;;;5024777;28;20182;-58
2022/02/07 03:45:30;;;;;;;5.37;1.33;;;;;;;;;;5015911;28;20298;-58
2022/02/07 03:47:56;;;;;;;4.63;1.33;;;;;;;;;;5009159;28;20554;-58
2022/02/07 03:50:29;;;;;;;6.27;1.53;;;;;;;;;;5016861;28;20209;-57
2022/02/07 03:52:56;;;;;;;5.63;2.07;;;;;;;;;;5024257;28;20218;-60
2022/02/07 03:55:22;;;;;;;5.57;1.60;;;;;;;;;;5014627;28;20550;-58
2022/02/07 03:57:48;;;;;;;4.13;1.63;;;;;;;;;;5020609;28;20205;-58
2022/02/07 04:00:15;;;;;;;4.40;1.60;;;;;;;;;;5022636;28;20174;-58
2022/02/07 04:02:45;;;;;;;2.83;1.30;;;;;;;;;;5022167;28;20652;-58
2022/02/07 04:07:57;;;;;;;4.60;1.47;;;;;;;;;;5033806;28;20180;-58
2022/02/07 04:10:24;;;;;;;10.80;2.33;;;;;;;;;;5018533;28;20196;-59
2022/02/07 04:12:59;;;;;;;2.13;1.33;;;;;;;;;;5028729;28;20284;-57
2022/02/07 04:15:27;;;;;;;4.70;1.73;;;;;;;;;;4994619;28;20236;-58
2022/02/07 04:18:02;;;;;;;4.23;1.73;;;;;;;;;;4990401;28;20197;-58
2022/02/07 04:20:28;;;;;;;6.83;1.87;;;;;;;;;;4998693;28;20278;-58
2022/02/07 04:22:58;;;;;;;3.90;1.27;;;;;;;;;;4990647;28;20213;-58
2022/02/07 04:25:27;;;;;;;4.77;1.47;;;;;;;;;;4997472;28;20195;-59
2022/02/07 04:27:54;;;;;;;5.70;1.47;;;;;;;;;;5008637;28;20713;-59
2022/02/07 04:30:20;;;;;;;4.93;1.47;;;;;;;;;;4986462;28;20190;-58
2022/02/07 04:32:47;;;;;;;3.33;1.60;;;;;;;;;;4996105;28;20211;-58
2022/02/07 04:35:19;;;;;;;8.00;1.77;;;;;;;;;;5009574;28;20700;-58
2022/02/07 04:37:49;;;;;;;6.53;1.47;;;;;;;;;;4989402;28;20183;-59
2022/02/07 04:40:18;;;;;;;4.63;1.90;;;;;;;;;;4986324;28;20277;-58
2022/02/07 04:42:44;;;;;;;5.97;2.10;;;;;;;;;;4991684;28;20197;-59
2022/02/07 04:50:45;;;;;;;4.77;1.80;;;;;;;;;;5004190;28;20187;-58
2022/02/07 05:01:33;;;;;;;3.63;1.57;;;;;;;;;;4996930;28;20182;-59
2022/02/07 05:04:07;;;;;;;8.63;2.03;;;;;;;;;;5001038;28;20683;-58
2022/02/07 05:15:05;;;;;;;9.00;2.23;;;;;;;;;;4953610;28;20737;-58
2022/02/07 05:17:35;;;;;;;5.97;1.97;;;;;;;;;;4992637;28;20195;-58
2022/02/07 05:20:02;;;;;;;3.00;1.73;;;;;;;;;;4993298;28;20284;-58
2022/02/07 05:22:30;;;;;;;4.50;1.80;;;;;;;;;;5007859;28;20220;-58
2022/02/07 05:25:02;;;;;;;5.67;2.03;;;;;;;;;;4995137;28;20218;-58
2022/02/07 05:27:28;;;;;;;7.03;2.47;;;;;;;;;;5002059;28;20192;-59
2022/02/07 05:29:55;;;;;;;7.27;2.87;;;;;;;;;;5002205;28;20349;-58
2022/02/07 05:32:21;;;;;;;7.30;2.77;;;;;;;;;;4998979;28;20186;-59
2022/02/07 05:34:48;;;;;;;6.03;2.00;;;;;;;;;;5008241;28;20179;-59
2022/02/07 05:37:15;;;;;;;7.30;1.80;;;;;;;;;;4983686;28;20212;-59
2022/02/07 05:39:49;;;;;;;8.10;1.90;;;;;;;;;;5001864;28;20175;-58
2022/02/07 05:42:16;;;;;;;6.27;1.70;;;;;;;;;;5009986;28;20616;-58
2022/02/07 05:44:45;;;;;;;7.27;2.20;;;;;;;;;;4993463;28;20234;-58
2022/02/07 05:47:12;;;;;;;7.63;1.57;;;;;;;;;;4997359;28;20191;-59
2022/02/07 05:49:38;;;;;;;9.63;2.43;;;;;;;;;;5004910;28;20181;-58
2022/02/07 05:52:08;;;;;;;6.47;1.87;;;;;;;;;;5000208;28;20185;-58
2022/02/07 05:54:37;;;;;;;4.77;2.27;;;;;;;;;;5005155;28;20186;-58
2022/02/07 05:57:04;;;;;;;9.57;2.70;;;;;;;;;;5003459;28;20206;-59
2022/02/07 05:59:37;;;;;;;5.60;2.70;;;;;;;;;;5005428;28;20649;-58
2022/02/07 06:02:09;;;;;;;7.13;2.43;;;;;;;;;;5012808;28;20194;-58
2022/02/07 06:04:35;;;;;;;4.47;1.57;;;;;;;;;;4988093;28;20811;-59
2022/02/07 06:07:01;;;;;;;7.40;2.23;;;;;;;;;;5005099;28;20285;-59
2022/02/07 06:09:28;;;;;;;4.63;1.90;;;;;;;;;;4985494;28;20530;-59
2022/02/07 06:11:55;;;;;;;9.33;2.70;;;;;;;;;;5005827;28;20189;-59
2022/02/07 06:14:21;;;;;;;9.00;2.43;;;;;;;;;;5009308;28;20249;-59
2022/02/07 06:16:50;;;;;;;5.73;1.80;;;;;;;;;;5026890;28;20190;-59
2022/02/07 06:19:17;;;;;;;8.73;2.60;;;;;;;;;;5014269;28;20186;-59
2022/02/07 06:21:43;;;;;;;3.70;1.53;;;;;;;;;;5022975;28;20205;-59
2022/02/07 06:24:10;;;;;;;7.00;1.80;;;;;;;;;;5006420;28;20186;-59
2022/02/07 06:26:40;;;;;;;7.97;2.53;;;;;;;;;;5008301;28;20636;-59
2022/02/07 06:29:07;;;;;;;7.57;2.60;;;;;;;;;;5010529;28;20282;-59
2022/02/07 06:31:33;;;;;;;8.97;2.33;;;;;;;;;;5030568;28;20641;-58
2022/02/07 06:34:04;;;;;;;8.00;2.57;;;;;;;;;;5015412;28;20275;-58
2022/02/07 06:36:31;;;;;;;6.87;2.33;;;;;;;;;;5024739;28;20173;-58
2022/02/07 06:38:57;;;;;;;7.73;2.07;;;;;;;;;;5010803;28;20178;-59
2022/02/07 06:41:24;;;;;;;13.00;2.53;;;;;;;;;;5021897;28;20186;-59
2022/02/07 06:43:50;;;;;;;7.87;2.43;;;;;;;;;;5026133;28;20186;-59
2022/02/07 06:46:16;;;;;;;10.00;3.10;;;;;;;;;;5036923;28;20553;-59
2022/02/07 06:48:43;;;;;;;5.77;2.37;;;;;;;;;;5032112;28;20188;-59
2022/02/07 06:51:09;;;;;;;7.27;2.20;;;;;;;;;;5022974;28;20251;-59
2022/02/07 06:53:38;;;;;;;10.47;2.73;;;;;;;;;;5034608;28;20258;-59
2022/02/07 06:56:07;;;;;;;10.20;2.40;;;;;;;;;;5026315;28;20216;-59
2022/02/07 06:58:36;;;;;;;10.53;2.50;;;;;;;;;;5020015;28;20181;-59
2022/02/07 07:01:05;;;;;;;12.17;2.27;;;;;;;;;;5013776;28;20579;-59
2022/02/07 07:03:33;;;;;;;7.57;2.13;;;;;;;;;;5015995;28;20415;-59
2022/02/07 07:06:00;;;;;;;9.87;2.83;;;;;;;;;;5012398;28;20235;-59
2022/02/07 07:08:26;;;;;;;4.10;2.17;;;;;;;;;;5015778;28;20213;-59
2022/02/07 07:10:56;;;;;;;17.70;2.33;;;;;;;;;;5026549;28;20193;-59
2022/02/07 07:13:30;;;;;;;13.13;2.63;;;;;;;;;;5003779;28;20684;-59
2022/02/07 07:16:12;;;;;;;12.93;2.43;;;;;;;;;;5009593;28;20228;-59
2022/02/07 07:18:39;;;;;;;5.40;2.00;;;;;;;;;;5007550;28;20299;-59
2022/02/07 07:21:05;;;;;;;4.90;2.13;;;;;;;;;;5038389;28;20225;-59
2022/02/07 07:23:37;;;;;;;7.10;2.10;;;;;;;;;;5027269;28;20272;-59
2022/02/07 07:26:03;;;;;;;6.77;2.10;;;;;;;;;;5014343;28;20591;-59
2022/02/07 07:28:29;;;;;;;5.23;2.40;;;;;;;;;;5003162;28;20532;-59
2022/02/07 07:30:57;;;;;;;11.57;2.60;;;;;;;;;;5019018;28;20564;-59
2022/02/07 07:33:26;;;;;;;10.43;3.40;;;;;;;;;;5018061;28;20201;-59
2022/02/07 07:35:52;;;;;;;8.10;2.80;;;;;;;;;;5031118;28;20216;-60
2022/02/07 07:38:19;;;;;;;5.23;1.93;;;;;;;;;;5011173;28;20170;-59
2022/02/07 07:40:46;;;;;;;8.50;2.03;;;;;;;;;;5052716;28;20181;-60
2022/02/07 07:43:12;;;;;;;8.53;2.77;;;;;;;;;;5044285;28;20190;-60
2022/02/07 07:45:47;;;;;;;8.27;2.10;;;;;;;;;;5028118;28;20264;-59
2022/02/07 07:48:18;;;;;;;3.20;1.80;;;;;;;;;;5024691;28;20625;-59
2022/02/07 08:02:00;;;;;;;4.77;2.20;;;;;;;;;;5037338;28;20172;-60
2022/02/07 08:04:26;;;;;;;4.53;1.47;;;;;;;;;;5023002;28;20251;-59
2022/02/07 08:07:13;;;;;;;7.17;2.30;;;;;;;;;;5023108;28;20219;-59
2022/02/07 08:12:11;;;;;;;8.67;2.17;;;;;;;;;;5028226;28;20186;-60
2022/02/07 08:14:37;;;;;;;9.07;2.67;;;;;;;;;;5016659;28;20236;-60
2022/02/07 08:17:04;;;;;;;7.30;2.13;;;;;;;;;;5022595;28;20177;-59
2022/02/07 08:19:32;;;;;;;11.17;2.77;;;;;;;;;;5007573;28;20555;-59
2022/02/07 08:21:59;;;;;;;8.60;2.40;;;;;;;;;;5009277;28;20298;-60
2022/02/07 08:24:29;;;;;;;5.53;2.83;;;;;;;;;;5032995;28;20256;-59
2022/02/07 08:26:57;;;;;;;9.60;2.27;;;;;;;;;;5019413;28;20186;-60
2022/02/07 08:29:26;;;;;;;6.73;2.40;;;;;;;;;;5025336;28;20272;-60
2022/02/07 08:31:52;;;;;;;7.93;2.37;;;;;;;;;;5011500;28;20668;-59
2022/02/07 08:34:18;;;;;;;9.63;2.40;;;;;;;;;;5006664;28;20681;-59
2022/02/07 08:36:44;;;;;;;6.50;2.20;;;;;;;;;;5009538;28;20646;-59
2022/02/07 08:39:14;;;;;;;8.13;2.20;;;;;;;;;;5028664;28;20177;-59
2022/02/07 08:41:40;;;;;;;6.27;2.10;;;;;;;;;;5026762;28;20178;-59
2022/02/07 08:44:06;;;;;;;8.73;2.10;;;;;;;;;;5019352;28;20182;-59
2022/02/07 08:46:33;;;;;;;9.17;2.63;;;;;;;;;;5023905;28;20178;-59
2022/02/07 08:48:59;;;;;;;7.10;2.20;;;;;;;;;;5031612;28;20185;-59
2022/02/07 08:51:31;;;;;;;5.73;2.30;;;;;;;;;;5028214;28;20649;-59
2022/02/07 08:54:06;;;;;;;10.70;2.70;;;;;;;;;;5015810;28;20210;-60
2022/02/07 08:57:13;;;;;;;4.20;1.97;;;;;;;;;;5010756;28;20200;-59
2022/02/07 08:59:40;;;;;;;8.00;2.70;;;;;;;;;;5015392;28;20182;-59
2022/02/07 09:04:56;;;;;;;5.83;2.47;;;;;;;;;;5020467;28;20605;-59
2022/02/07 09:07:30;;;;;;;9.30;2.67;;;;;;;;;;5004587;28;20201;-60
2022/02/07 09:09:57;;;;;;;10.57;3.30;;;;;;;;;;5032430;28;20658;-60
2022/02/07 09:12:23;;;;;;;7.10;2.43;;;;;;;;;;5023158;28;20405;-59
2022/02/07 09:15:06;;;;;;;6.63;2.63;;;;;;;;;;5027830;28;20224;-59
2022/02/07 09:17:32;;;;;;;7.20;3.17;;;;;;;;;;5040607;28;20973;-59
2022/02/07 09:20:02;;;;;;;6.47;2.27;;;;;;;;;;5021557;28;20185;-60
2022/02/07 09:22:28;;;;;;;9.30;2.70;;;;;;;;;;5015566;28;20181;-59
2022/02/07 09:24:57;;;;;;;6.07;1.90;;;;;;;;;;5028787;28;20181;-59
2022/02/07 09:27:26;;;;;;;6.90;2.17;;;;;;;;;;5023265;28;20174;-59
2022/02/07 09:29:52;;;;;;;13.10;2.63;;;;;;;;;;5020667;28;20177;-59
2022/02/07 09:32:19;;;;;;;8.00;2.47;;;;;;;;;;5054688;28;20582;-59
2022/02/07 09:34:45;;;;;;;8.70;2.57;;;;;;;;;;5025591;28;20186;-59
2022/02/07 09:37:11;;;;;;;11.93;2.97;;;;;;;;;;5053055;28;20181;-60
2022/02/07 09:39:38;;;;;;;12.33;2.60;;;;;;;;;;5058563;28;20180;-59
2022/02/07 09:42:05;;;;;;;8.17;2.27;;;;;;;;;;5027033;28;20189;-59
2022/02/07 09:44:41;;;;;;;11.13;2.93;;;;;;;;;;5031210;28;20166;-59
2022/02/07 09:47:10;;;;;;;9.43;3.13;;;;;;;;;;5029209;28;20704;-59
2022/02/07 09:49:40;;;;;;;9.07;2.33;;;;;;;;;;5023094;28;20265;-59
2022/02/07 09:52:09;;;;;;;8.07;2.60;;;;;;;;;;5024040;28;20686;-59
2022/02/07 09:54:39;;;;;;;9.13;2.70;;;;;;;;;;5034600;28;20204;-59
2022/02/07 09:57:06;;;;;;;19.67;3.33;;;;;;;;;;5013105;28;20193;-60
2022/02/07 09:59:34;;;;;;;21.43;4.00;;;;;;;;;;5056348;28;20266;-59
2022/02/07 10:02:07;;;;;;;17.13;3.47;;;;;;;;;;5054402;28;20186;-60
2022/02/07 10:04:41;;;;;;;17.33;3.30;;;;;;;;;;5012032;28;20322;-59
2022/02/07 10:07:25;;;;;;;16.10;3.07;;;;;;;;;;5035693;28;20522;-60
2022/02/07 10:10:12;;;;;;;8.70;2.87;;;;;;;;;;5025698;28;20227;-59
2022/02/07 10:12:55;;;;;;;15.33;3.00;;;;;;;;;;5034654;28;20212;-59
2022/02/07 10:15:33;;;;;;;12.43;2.87;;;;;;;;;;5001821;28;20613;-60
2022/02/07 10:18:12;;;;;;;6.50;2.93;;;;;;;;;;4999235;28;20188;-60
2022/02/07 10:40:34;;;;;;;10.77;2.80;;;;;;;;;;5016252;28;20196;-60
2022/02/07 10:45:47;;;;;;;9.77;2.90;;;;;;;;;;5022176;28;20188;-59
2022/02/07 10:48:13;;;;;;;5.40;2.60;;;;;;;;;;4992624;28;20205;-59
2022/02/07 10:50:39;;;;;;;14.53;2.60;;;;;;;;;;5002150;28;20175;-60
2022/02/07 10:53:08;;;;;;;13.80;3.10;;;;;;;;;;5013970;28;20662;-59
2022/02/07 10:55:38;;;;;;;9.40;2.70;;;;;;;;;;5026991;28;20633;-59
2022/02/07 10:58:16;;;;;;;5.73;2.10;;;;;;;;;;5010892;28;20716;-59
2022/02/07 11:00:54;;;;;;;7.73;3.03;;;;;;;;;;5003483;28;20175;-59
2022/02/07 11:03:24;;;;;;;15.83;3.20;;;;;;;;;;4992634;28;20171;-58
2022/02/07 11:05:55;;;;;;;12.70;3.37;;;;;;;;;;4991199;28;20187;-60
2022/02/07 11:13:55;;;;;;;4.83;2.33;;;;;;;;;;5012755;28;20217;-59
2022/02/07 11:16:37;;;;;;;10.60;3.67;;;;;;;;;;4995190;28;20198;-59
2022/02/07 11:21:43;;;;;;;11.23;3.30;;;;;;;;;;5005392;28;20186;-59
2022/02/07 11:27:39;;;;;;;9.20;3.47;;;;;;;;;;4986665;28;20183;-60
2022/02/07 11:30:11;;;;;;;10.30;3.07;;;;;;;;;;5005899;28;20282;-59
2022/02/07 11:32:48;;;;;;;13.20;3.37;;;;;;;;;;4999721;28;20189;-59
2022/02/07 11:35:15;;;;;;;10.70;2.97;;;;;;;;;;5006502;28;20193;-59
2022/02/07 11:37:57;;;;;;;10.40;2.67;;;;;;;;;;5033775;28;20225;-59
2022/02/07 11:40:30;;;;;;;10.33;2.13;;;;;;;;;;5007620;28;20224;-59
2022/02/07 11:43:15;;;;;;;13.23;3.07;;;;;;;;;;5023174;28;20197;-59
2022/02/07 11:46:03;;;;;;;10.80;3.00;;;;;;;;;;4998468;28;20246;-59
2022/02/07 11:48:31;;;;;;;10.23;2.83;;;;;;;;;;4994976;28;20186;-60
2022/02/07 11:50:59;;;;;;;9.57;2.60;;;;;;;;;;5016630;28;20593;-59
2022/02/07 11:53:45;;;;;;;8.87;2.57;;;;;;;;;;5035226;28;20521;-58
2022/02/07 11:56:22;;;;;;;11.17;2.83;;;;;;;;;;5042917;28;20561;-59
2022/02/07 12:02:06;;;;;;;10.37;2.40;;;;;;;;;;5017572;28;20185;-59
2022/02/07 12:04:43;;;;;;;9.93;3.03;;;;;;;;;;5011632;28;20600;-59
2022/02/07 12:07:19;;;;;;;13.93;2.63;;;;;;;;;;5007859;28;20700;-59
2022/02/07 12:10:42;;;;;;;7.37;2.20;;;;;;;;;;4992619;28;20186;-60
2022/02/07 12:12:49;;;;;;;7.53;2.33;;;;;;;;;;5000707;28;20197;-59
2022/02/07 12:15:27;;;;;;;9.70;2.87;;;;;;;;;;5021376;28;20225;-60
2022/02/07 12:17:58;;;;;;;10.43;3.00;;;;;;;;;;5018871;28;20457;-60
2022/02/07 12:20:25;;;;;;;6.80;2.60;;;;;;;;;;5015223;28;20185;-59
2022/02/07 12:22:54;;;;;;;8.40;3.13;;;;;;;;;;5016497;28;20243;-59
2022/02/07 12:25:33;;;;;;;12.97;2.73;;;;;;;;;;5014952;28;20187;-59
2022/02/07 12:28:01;;;;;;;5.97;2.23;;;;;;;;;;5031323;28;20670;-60
2022/02/07 12:30:43;;;;;;;6.77;2.60;;;;;;;;;;5028796;28;20255;-59
2022/02/07 12:33:09;;;;;;;9.03;2.73;;;;;;;;;;5024560;28;20327;-59
2022/02/07 12:35:35;;;;;;;16.17;2.73;;;;;;;;;;5041668;28;20173;-59
2022/02/07 12:38:01;;;;;;;6.40;2.30;;;;;;;;;;5019641;28;20414;-60
2022/02/07 12:40:27;;;;;;;6.47;2.20;;;;;;;;;;5027682;28;20182;-59
2022/02/07 12:42:55;;;;;;;13.00;3.77;;;;;;;;;;5018033;28;20181;-59
2022/02/07 12:45:26;;;;;;;5.50;2.20;;;;;;;;;;5008541;28;20190;-60
2022/02/07 12:47:57;;;;;;;7.10;2.20;;;;;;;;;;5021343;28;20174;-59
2022/02/07 12:50:27;;;;;;;10.20;2.83;;;;;;;;;;4992597;28;20193;-59
2022/02/07 12:53:17;;;;;;;8.27;2.33;;;;;;;;;;5014225;28;20296;-59
2022/02/07 12:55:57;;;;;;;8.03;2.23;;;;;;;;;;5024083;28;20665;-59
2022/02/07 12:58:29;;;;;;;5.13;2.60;;;;;;;;;;5034840;28;20625;-59
2022/02/07 13:00:58;;;;;;;9.43;3.70;;;;;;;;;;5023615;28;20667;-59
2022/02/07 13:03:25;;;;;;;8.50;2.73;;;;;;;;;;5017108;28;20182;-58
2022/02/07 13:05:57;;;;;;;7.33;2.47;;;;;;;;;;5028858;28;20220;-59
2022/02/07 13:08:26;;;;;;;6.43;2.20;;;;;;;;;;5022560;28;20236;-59
2022/02/07 13:10:53;;;;;;;9.43;2.37;;;;;;;;;;5010259;28;20193;-59
2022/02/07 13:13:38;;;;;;;12.20;2.60;;;;;;;;;;5022440;28;20307;-60
2022/02/07 13:16:04;;;;;;;8.50;3.07;;;;;;;;;;5032204;28;20251;-59
2022/02/07 13:18:34;;;;;;;11.23;3.20;;;;;;;;;;5033112;28;20550;-59
2022/02/07 13:21:07;;;;;;;7.43;3.10;;;;;;;;;;5008604;28;20280;-59
2022/02/07 13:23:33;;;;;;;6.33;3.13;;;;;;;;;;5013206;28;20191;-59
2022/02/07 13:26:04;;;;;;;6.53;2.23;;;;;;;;;;5011669;28;20174;-59
2022/02/07 13:28:33;;;;;;;7.00;2.97;;;;;;;;;;5019604;28;20221;-60
2022/02/07 13:31:00;;;;;;;6.50;2.37;;;;;;;;;;5026711;28;20174;-59
2022/02/07 13:33:27;;;;;;;7.63;2.63;;;;;;;;;;5024840;28;20669;-59
2022/02/07 13:35:58;;;;;;;6.07;2.40;;;;;;;;;;5010202;28;20189;-59
2022/02/07 13:38:27;;;;;;;5.73;2.40;;;;;;;;;;5020822;28;20197;-60
2022/02/07 13:40:55;;;;;;;7.73;2.20;;;;;;;;;;5009871;28;20193;-59
2022/02/07 13:43:25;;;;;;;8.57;2.13;;;;;;;;;;5012202;28;20252;-60
2022/02/07 13:45:53;;;;;;;9.37;2.13;;;;;;;;;;5022731;28;20190;-59
2022/02/07 13:48:21;;;;;;;9.57;3.10;;;;;;;;;;5016492;28;20184;-59
2022/02/07 13:50:49;;;;;;;7.37;2.80;;;;;;;;;;5036211;28;20185;-58
2022/02/07 13:53:18;;;;;;;5.67;2.40;;;;;;;;;;5016848;28;20568;-59
2022/02/07 13:55:46;;;;;;;6.83;2.80;;;;;;;;;;5012085;28;20281;-59
2022/02/07 13:58:16;;;;;;;5.10;2.03;;;;;;;;;;5015638;28;20186;-59
2022/02/07 14:00:48;;;;;;;6.77;2.20;;;;;;;;;;5015519;28;20186;-59
2022/02/07 14:03:16;;;;;;;5.33;2.67;;;;;;;;;;5021432;28;20666;-59
2022/02/07 14:05:47;;;;;;;4.07;1.67;;;;;;;;;;5029236;28;20181;-60
2022/02/07 14:08:14;;;;;;;2.50;1.47;;;;;;;;;;5008644;28;20565;-59
2022/02/07 14:10:41;;;;;;;7.73;2.67;;;;;;;;;;5009567;28;20186;-58
2022/02/07 14:13:15;;;;;;;8.37;2.70;;;;;;;;;;5014736;28;20229;-58
2022/02/07 14:15:46;;;;;;;11.43;2.70;;;;;;;;;;5035088;28;20582;-59
2022/02/07 14:18:18;;;;;;;4.67;1.90;;;;;;;;;;5028408;28;20185;-59
2022/02/07 14:20:46;;;;;;;5.83;2.10;;;;;;;;;;5015363;28;20550;-59
2022/02/07 14:23:16;;;;;;;6.13;2.70;;;;;;;;;;5021386;28;20190;-59
2022/02/07 14:25:44;;;;;;;6.83;2.40;;;;;;;;;;5012888;28;20264;-59
2022/02/07 14:28:14;;;;;;;5.87;2.00;;;;;;;;;;5025680;28;20268;-59
2022/02/07 14:30:44;;;;;;;5.67;1.90;;;;;;;;;;5019839;28;20328;-58
2022/02/07 14:33:13;;;;;;;5.80;2.27;;;;;;;;;;5019937;28;20293;-59
2022/02/07 14:35:39;;;;;;;5.97;2.43;;;;;;;;;;5012416;28;20193;-59
2022/02/07 14:38:06;;;;;;;10.23;2.53;;;;;;;;;;5005929;28;20805;-59
2022/02/07 14:40:37;;;;;;;7.53;2.20;;;;;;;;;;5024406;28;20182;-59
2022/02/07 14:43:04;;;;;;;4.97;1.93;;;;;;;;;;5016685;28;20186;-59
2022/02/07 14:45:36;;;;;;;6.80;2.13;;;;;;;;;;5013930;28;20193;-60
2022/02/07 14:48:06;;;;;;;3.77;1.60;;;;;;;;;;5017697;28;20193;-59
2022/02/07 14:50:34;;;;;;;7.93;2.03;;;;;;;;;;5018507;28;20181;-59
2022/02/07 14:53:01;;;;;;;4.80;1.73;;;;;;;;;;5022252;28;20297;-58
2022/02/07 14:55:30;;;;;;;10.07;1.70;;;;;;;;;;5037283;28;20231;-59
2022/02/07 14:58:02;;;;;;;9.23;1.97;;;;;;;;;;5018315;28;20745;-60
2022/02/07 15:00:29;;;;;;;6.33;2.30;;;;;;;;;;5010598;28;20174;-59
2022/02/07 15:03:05;;;;;;;6.17;2.33;;;;;;;;;;5036499;28;20255;-58
2022/02/07 15:05:35;;;;;;;7.90;1.70;;;;;;;;;;5012288;28;20597;-58
2022/02/07 15:08:01;;;;;;;6.27;1.73;;;;;;;;;;5016640;28;20657;-58
2022/02/07 15:10:32;;;;;;;5.60;2.23;;;;;;;;;;5022562;28;20186;-60
2022/02/07 15:12:59;;;;;;;5.73;1.70;;;;;;;;;;5028605;28;20668;-58
2022/02/07 15:15:31;;;;;;;5.47;1.87;;;;;;;;;;5029479;28;20666;-59
2022/02/07 15:18:05;;;;;;;5.33;1.63;;;;;;;;;;5022980;28;20178;-58
2022/02/07 15:20:35;;;;;;;7.77;1.67;;;;;;;;;;5030316;28;20617;-58
2022/02/07 15:23:10;;;;;;;4.77;2.17;;;;;;;;;;5016101;28;20626;-59
2022/02/07 15:25:39;;;;;;;4.37;1.90;;;;;;;;;;5030152;28;20193;-59
2022/02/07 15:28:11;;;;;;;2.87;1.60;;;;;;;;;;5015046;28;20185;-59
2022/02/07 15:30:42;;;;;;;4.57;2.00;;;;;;;;;;5029616;28;20178;-59
2022/02/07 15:33:13;;;;;;;2.90;1.37;;;;;;;;;;5028437;28;20229;-58
2022/02/07 15:35:40;;;;;;;2.50;1.53;;;;;;;;;;5008463;28;20304;-58
2022/02/07 15:38:07;;;;;;;3.30;1.67;;;;;;;;;;5037063;28;20193;-58
2022/02/07 15:40:33;;;;;;;6.27;1.67;;;;;;;;;;5018176;28;20327;-58
2022/02/07 15:43:02;;;;;;;8.17;1.87;;;;;;;;;;5002489;28;20206;-59
2022/02/07 15:45:28;;;;;;;8.80;1.97;;;;;;;;;;5009170;28;20198;-59
2022/02/07 15:47:56;;;;;;;4.73;1.77;;;;;;;;;;5022480;28;20559;-58
2022/02/07 15:50:23;;;;;;;3.23;1.57;;;;;;;;;;5025119;28;20549;-59
2022/02/07 15:52:53;;;;;;;4.73;1.37;;;;;;;;;;5018505;28;20225;-58
2022/02/07 15:55:25;;;;;;;6.27;1.60;;;;;;;;;;5013753;28;20209;-59
2022/02/07 15:57:51;;;;;;;7.20;1.80;;;;;;;;;;5005460;28;20202;-59
2022/02/07 16:00:21;;;;;;;6.07;1.60;;;;;;;;;;5028243;28;20676;-60
2022/02/07 16:02:53;;;;;;;4.90;2.23;;;;;;;;;;4997577;28;20177;-58
2022/02/07 16:05:24;;;;;;;3.57;1.80;;;;;;;;;;4998235;28;20182;-59
2022/02/07 16:07:50;;;;;;;2.93;1.50;;;;;;;;;;5019334;28;20594;-58
2022/02/07 16:10:17;;;;;;;6.40;2.13;;;;;;;;;;5017741;28;20618;-58
2022/02/07 16:12:44;;;;;;;3.83;1.80;;;;;;;;;;4993045;28;20626;-59
2022/02/07 16:15:13;;;;;;;4.33;1.80;;;;;;;;;;5009751;28;20221;-58
2022/02/07 16:17:39;;;;;;;12.27;1.90;;;;;;;;;;5014539;28;20266;-60
2022/02/07 16:20:06;;;;;;;7.70;2.00;;;;;;;;;;5024046;28;20188;-59
2022/02/07 16:22:32;;;;;;;10.60;1.73;;;;;;;;;;5019420;28;20179;-58
2022/02/07 16:24:59;;;;;;;6.00;1.50;;;;;;;;;;5013750;28;20209;-59
2022/02/07 16:27:25;;;;;;;5.97;1.97;;;;;;;;;;5002946;28;20186;-58
2022/02/07 16:29:54;;;;;;;2.87;1.70;;;;;;;;;;5021439;28;20193;-58
2022/02/07 16:32:21;;;;;;;2.67;1.23;;;;;;;;;;5014343;28;20186;-60
2022/02/07 16:34:48;;;;;;;6.43;1.60;;;;;;;;;;5005944;28;20644;-58
2022/02/07 16:37:14;;;;;;;7.83;1.77;;;;;;;;;;5029703;28;20185;-59
2022/02/07 16:39:43;;;;;;;7.10;2.30;;;;;;;;;;5017029;28;20712;-59
2022/02/07 16:42:10;;;;;;;3.23;1.73;;;;;;;;;;5023104;28;20518;-59
2022/02/07 16:44:36;;;;;;;3.63;1.67;;;;;;;;;;5011260;28;20193;-58
2022/02/07 16:47:09;;;;;;;4.27;1.80;;;;;;;;;;5019055;28;20498;-60
2022/02/07 16:49:36;;;;;;;10.07;2.00;;;;;;;;;;5013067;28;20559;-59
2022/02/07 16:52:03;;;;;;;5.20;1.93;;;;;;;;;;5008139;28;20188;-59
2022/02/07 16:54:30;;;;;;;5.13;1.40;;;;;;;;;;4998852;28;20206;-58
2022/02/07 16:57:00;;;;;;;6.47;1.60;;;;;;;;;;5021771;28;20205;-58
2022/02/07 16:59:27;;;;;;;4.73;1.87;;;;;;;;;;5016120;28;20609;-59
2022/02/07 17:01:58;;;;;;;5.70;1.83;;;;;;;;;;5015793;28;20648;-60
2022/02/07 17:04:25;;;;;;;4.47;1.67;;;;;;;;;;5024085;28;20590;-59
2022/02/07 17:06:52;;;;;;;9.30;1.90;;;;;;;;;;5027163;28;20231;-58
2022/02/07 17:09:18;;;;;;;4.60;1.80;;;;;;;;;;5026777;28;20176;-59
2022/02/07 17:11:50;;;;;;;4.97;1.63;;;;;;;;;;5016242;28;20664;-60
2022/02/07 17:14:17;;;;;;;5.93;1.60;;;;;;;;;;5009974;28;20211;-58
2022/02/07 17:16:46;;;;;;;4.03;1.60;;;;;;;;;;5005493;28;20587;-59